sensor_id;sensor_type;location;lat;lon;timestamp;P1;durP1;ratioP1;P2;durP2;ratioP2
75582;SDS011;64161;46.312;44.310;2022-10-15T00:01:16;11.50;;;4.35;;
75582;SDS011;64161;46.312;44.310;2022-10-15T00:03:43;8.75;;;4.68;;
75582;SDS011;64161;46.312;44.310;2022-10-15T00:06:11;8.75;;;4.15;;
75582;SDS011;64161;46.312;44.310;2022-10-15T00:11:28;10.95;;;5.15;;
75582;SDS011;64161;46.312;44.310;2022-10-15T00:13:56;8.57;;;5.15;;
75582;SDS011;64161;46.312;44.310;2022-10-15T00:16:25;5.43;;;3.83;;
75582;SDS011;64161;46.312;44.310;2022-10-15T00:18:56;9.25;;;4.95;;
75582;SDS011;64161;46.312;44.310;2022-10-15T00:21:24;10.27;;;5.03;;
75582;SDS011;64161;46.312;44.310;2022-10-15T00:23:50;11.88;;;4.85;;
75582;SDS011;64161;46.312;44.310;2022-10-15T00:26:18;8.38;;;5.10;;
75582;SDS011;64161;46.312;44.310;2022-10-15T00:28:50;11.90;;;4.45;;
75582;SDS011;64161;46.312;44.310;2022-10-15T00:31:21;9.57;;;5.30;;
75582;SDS011;64161;46.312;44.310;2022-10-15T00:33:49;9.23;;;4.30;;
75582;SDS011;64161;46.312;44.310;2022-10-15T00:36:17;10.57;;;5.05;;
75582;SDS011;64161;46.312;44.310;2022-10-15T00:38:46;9.63;;;4.00;;
75582;SDS011;64161;46.312;44.310;2022-10-15T00:41:14;8.98;;;5.00;;
75582;SDS011;64161;46.312;44.310;2022-10-15T00:46:39;9.00;;;3.95;;
75582;SDS011;64161;46.312;44.310;2022-10-15T00:49:14;9.95;;;5.07;;
75582;SDS011;64161;46.312;44.310;2022-10-15T00:51:49;10.27;;;4.75;;
75582;SDS011;64161;46.312;44.310;2022-10-15T00:54:18;9.35;;;4.55;;
75582;SDS011;64161;46.312;44.310;2022-10-15T00:56:46;10.45;;;5.45;;
75582;SDS011;64161;46.312;44.310;2022-10-15T00:59:15;10.20;;;4.97;;
75582;SDS011;64161;46.312;44.310;2022-10-15T01:01:44;11.73;;;4.63;;
75582;SDS011;64161;46.312;44.310;2022-10-15T01:04:11;8.85;;;4.82;;
75582;SDS011;64161;46.312;44.310;2022-10-15T01:06:38;10.88;;;5.28;;
75582;SDS011;64161;46.312;44.310;2022-10-15T01:09:06;8.40;;;5.10;;
75582;SDS011;64161;46.312;44.310;2022-10-15T01:11:46;11.05;;;5.40;;
75582;SDS011;64161;46.312;44.310;2022-10-15T01:31:27;16.50;;;5.05;;
75582;SDS011;64161;46.312;44.310;2022-10-15T01:34:03;9.23;;;5.13;;
75582;SDS011;64161;46.312;44.310;2022-10-15T01:36:48;11.70;;;5.13;;
75582;SDS011;64161;46.312;44.310;2022-10-15T01:40:13;8.77;;;4.43;;
75582;SDS011;64161;46.312;44.310;2022-10-15T01:45:21;11.77;;;5.82;;
75582;SDS011;64161;46.312;44.310;2022-10-15T01:48:25;10.68;;;4.85;;
75582;SDS011;64161;46.312;44.310;2022-10-15T01:50:56;13.68;;;6.18;;
75582;SDS011;64161;46.312;44.310;2022-10-15T01:53:27;12.77;;;5.63;;
75582;SDS011;64161;46.312;44.310;2022-10-15T01:55:59;10.57;;;4.97;;
75582;SDS011;64161;46.312;44.310;2022-10-15T01:58:29;12.32;;;5.60;;
75582;SDS011;64161;46.312;44.310;2022-10-15T02:00:57;18.52;;;6.40;;
75582;SDS011;64161;46.312;44.310;2022-10-15T02:03:25;11.50;;;5.18;;
75582;SDS011;64161;46.312;44.310;2022-10-15T02:05:56;12.63;;;6.15;;
75582;SDS011;64161;46.312;44.310;2022-10-15T02:12:07;13.98;;;5.38;;
75582;SDS011;64161;46.312;44.310;2022-10-15T02:14:58;10.68;;;5.93;;
75582;SDS011;64161;46.312;44.310;2022-10-15T02:17:30;23.17;;;6.22;;
75582;SDS011;64161;46.312;44.310;2022-10-15T02:20:30;13.80;;;6.60;;
75582;SDS011;64161;46.312;44.310;2022-10-15T02:23:21;9.90;;;5.28;;
75582;SDS011;64161;46.312;44.310;2022-10-15T02:26:16;12.13;;;5.15;;
75582;SDS011;64161;46.312;44.310;2022-10-15T02:28:46;13.70;;;5.90;;
75582;SDS011;64161;46.312;44.310;2022-10-15T02:31:18;12.88;;;5.72;;
75582;SDS011;64161;46.312;44.310;2022-10-15T02:34:17;9.85;;;4.85;;
75582;SDS011;64161;46.312;44.310;2022-10-15T02:36:46;7.88;;;4.53;;
75582;SDS011;64161;46.312;44.310;2022-10-15T02:39:16;14.25;;;7.18;;
75582;SDS011;64161;46.312;44.310;2022-10-15T02:41:47;16.02;;;7.03;;
75582;SDS011;64161;46.312;44.310;2022-10-15T02:44:14;13.05;;;6.35;;
75582;SDS011;64161;46.312;44.310;2022-10-15T02:46:40;18.38;;;7.75;;
75582;SDS011;64161;46.312;44.310;2022-10-15T02:49:09;14.20;;;7.50;;
75582;SDS011;64161;46.312;44.310;2022-10-15T02:51:35;15.00;;;7.97;;
75582;SDS011;64161;46.312;44.310;2022-10-15T02:54:02;12.40;;;6.15;;
75582;SDS011;64161;46.312;44.310;2022-10-15T02:56:30;14.43;;;5.85;;
75582;SDS011;64161;46.312;44.310;2022-10-15T02:58:56;13.40;;;6.43;;
75582;SDS011;64161;46.312;44.310;2022-10-15T03:01:22;22.40;;;7.82;;
75582;SDS011;64161;46.312;44.310;2022-10-15T03:03:49;13.23;;;6.63;;
75582;SDS011;64161;46.312;44.310;2022-10-15T03:06:15;14.45;;;7.47;;
75582;SDS011;64161;46.312;44.310;2022-10-15T03:08:41;13.75;;;7.57;;
75582;SDS011;64161;46.312;44.310;2022-10-15T03:11:09;11.13;;;5.53;;
75582;SDS011;64161;46.312;44.310;2022-10-15T03:13:37;15.98;;;8.00;;
75582;SDS011;64161;46.312;44.310;2022-10-15T03:16:04;14.52;;;8.02;;
75582;SDS011;64161;46.312;44.310;2022-10-15T03:18:32;14.52;;;6.18;;
75582;SDS011;64161;46.312;44.310;2022-10-15T03:20:59;11.77;;;6.38;;
75582;SDS011;64161;46.312;44.310;2022-10-15T03:23:26;14.05;;;6.78;;
75582;SDS011;64161;46.312;44.310;2022-10-15T03:26:04;15.25;;;6.13;;
75582;SDS011;64161;46.312;44.310;2022-10-15T03:28:49;13.00;;;6.80;;
75582;SDS011;64161;46.312;44.310;2022-10-15T03:31:29;10.93;;;4.47;;
75582;SDS011;64161;46.312;44.310;2022-10-15T03:33:59;10.98;;;5.43;;
75582;SDS011;64161;46.312;44.310;2022-10-15T03:36:25;16.52;;;7.50;;
75582;SDS011;64161;46.312;44.310;2022-10-15T03:41:40;9.93;;;5.22;;
75582;SDS011;64161;46.312;44.310;2022-10-15T03:44:09;15.57;;;7.53;;
75582;SDS011;64161;46.312;44.310;2022-10-15T03:46:41;10.95;;;5.32;;
75582;SDS011;64161;46.312;44.310;2022-10-15T03:49:07;15.02;;;7.50;;
75582;SDS011;64161;46.312;44.310;2022-10-15T03:51:34;11.30;;;7.07;;
75582;SDS011;64161;46.312;44.310;2022-10-15T03:54:09;9.93;;;5.07;;
75582;SDS011;64161;46.312;44.310;2022-10-15T03:56:43;13.02;;;6.88;;
75582;SDS011;64161;46.312;44.310;2022-10-15T03:59:23;12.48;;;5.93;;
75582;SDS011;64161;46.312;44.310;2022-10-15T04:01:56;12.55;;;6.68;;
75582;SDS011;64161;46.312;44.310;2022-10-15T04:04:22;10.45;;;5.32;;
75582;SDS011;64161;46.312;44.310;2022-10-15T04:06:48;15.32;;;7.07;;
75582;SDS011;64161;46.312;44.310;2022-10-15T04:09:16;12.80;;;6.40;;
75582;SDS011;64161;46.312;44.310;2022-10-15T04:11:42;15.38;;;6.38;;
75582;SDS011;64161;46.312;44.310;2022-10-15T04:14:10;12.50;;;6.45;;
75582;SDS011;64161;46.312;44.310;2022-10-15T04:16:36;11.55;;;6.57;;
75582;SDS011;64161;46.312;44.310;2022-10-15T04:19:29;8.82;;;4.68;;
75582;SDS011;64161;46.312;44.310;2022-10-15T04:22:02;14.65;;;6.55;;
75582;SDS011;64161;46.312;44.310;2022-10-15T04:24:35;10.85;;;5.40;;
75582;SDS011;64161;46.312;44.310;2022-10-15T04:27:02;9.13;;;4.93;;
75582;SDS011;64161;46.312;44.310;2022-10-15T04:29:28;13.70;;;6.40;;
75582;SDS011;64161;46.312;44.310;2022-10-15T04:32:07;12.48;;;6.05;;
75582;SDS011;64161;46.312;44.310;2022-10-15T04:34:40;15.43;;;6.05;;
75582;SDS011;64161;46.312;44.310;2022-10-15T04:38:14;12.18;;;5.90;;
75582;SDS011;64161;46.312;44.310;2022-10-15T04:41:10;11.60;;;5.93;;
75582;SDS011;64161;46.312;44.310;2022-10-15T04:43:59;8.30;;;4.47;;
75582;SDS011;64161;46.312;44.310;2022-10-15T04:46:28;12.80;;;6.35;;
75582;SDS011;64161;46.312;44.310;2022-10-15T04:48:57;10.32;;;5.25;;
75582;SDS011;64161;46.312;44.310;2022-10-15T04:51:24;9.15;;;4.43;;
75582;SDS011;64161;46.312;44.310;2022-10-15T04:54:09;11.65;;;5.32;;
75582;SDS011;64161;46.312;44.310;2022-10-15T04:56:45;11.40;;;4.93;;
75582;SDS011;64161;46.312;44.310;2022-10-15T04:59:11;9.02;;;4.75;;
75582;SDS011;64161;46.312;44.310;2022-10-15T05:01:57;9.65;;;4.88;;
75582;SDS011;64161;46.312;44.310;2022-10-15T05:04:25;8.05;;;3.88;;
75582;SDS011;64161;46.312;44.310;2022-10-15T05:06:52;11.23;;;5.63;;
75582;SDS011;64161;46.312;44.310;2022-10-15T05:09:19;10.63;;;4.82;;
75582;SDS011;64161;46.312;44.310;2022-10-15T05:11:48;9.65;;;4.60;;
75582;SDS011;64161;46.312;44.310;2022-10-15T05:14:14;10.27;;;5.05;;
75582;SDS011;64161;46.312;44.310;2022-10-15T05:16:41;10.88;;;4.90;;
75582;SDS011;64161;46.312;44.310;2022-10-15T05:19:09;8.55;;;4.45;;
75582;SDS011;64161;46.312;44.310;2022-10-15T05:21:38;10.02;;;5.03;;
75582;SDS011;64161;46.312;44.310;2022-10-15T05:24:11;8.82;;;4.80;;
75582;SDS011;64161;46.312;44.310;2022-10-15T05:26:58;7.18;;;4.00;;
75582;SDS011;64161;46.312;44.310;2022-10-15T05:29:28;10.48;;;4.40;;
75582;SDS011;64161;46.312;44.310;2022-10-15T05:31:55;7.72;;;3.60;;
75582;SDS011;64161;46.312;44.310;2022-10-15T05:34:25;8.35;;;4.05;;
75582;SDS011;64161;46.312;44.310;2022-10-15T05:37:16;9.85;;;4.20;;
75582;SDS011;64161;46.312;44.310;2022-10-15T05:39:42;7.72;;;4.38;;
75582;SDS011;64161;46.312;44.310;2022-10-15T05:42:09;9.75;;;4.13;;
75582;SDS011;64161;46.312;44.310;2022-10-15T05:47:36;10.27;;;5.28;;
75582;SDS011;64161;46.312;44.310;2022-10-15T05:50:12;6.95;;;3.70;;
75582;SDS011;64161;46.312;44.310;2022-10-15T05:52:55;7.10;;;3.05;;
75582;SDS011;64161;46.312;44.310;2022-10-15T05:55:28;8.35;;;4.43;;
75582;SDS011;64161;46.312;44.310;2022-10-15T05:57:55;9.07;;;4.40;;
75582;SDS011;64161;46.312;44.310;2022-10-15T06:00:26;7.85;;;4.47;;
75582;SDS011;64161;46.312;44.310;2022-10-15T06:02:52;6.68;;;3.58;;
75582;SDS011;64161;46.312;44.310;2022-10-15T06:05:56;5.90;;;2.90;;
75582;SDS011;64161;46.312;44.310;2022-10-15T06:08:22;8.07;;;4.00;;
75582;SDS011;64161;46.312;44.310;2022-10-15T06:10:49;7.93;;;3.50;;
75582;SDS011;64161;46.312;44.310;2022-10-15T06:13:15;6.35;;;2.90;;
75582;SDS011;64161;46.312;44.310;2022-10-15T06:15:42;7.13;;;2.80;;
75582;SDS011;64161;46.312;44.310;2022-10-15T06:18:10;4.78;;;2.70;;
75582;SDS011;64161;46.312;44.310;2022-10-15T06:20:41;6.68;;;2.72;;
75582;SDS011;64161;46.312;44.310;2022-10-15T06:23:08;5.53;;;2.65;;
75582;SDS011;64161;46.312;44.310;2022-10-15T06:25:34;6.22;;;3.10;;
75582;SDS011;64161;46.312;44.310;2022-10-15T06:28:05;5.75;;;3.28;;
75582;SDS011;64161;46.312;44.310;2022-10-15T06:30:40;6.40;;;3.03;;
75582;SDS011;64161;46.312;44.310;2022-10-15T06:33:06;9.43;;;4.13;;
75582;SDS011;64161;46.312;44.310;2022-10-15T06:35:33;5.30;;;3.03;;
75582;SDS011;64161;46.312;44.310;2022-10-15T06:38:03;6.07;;;2.28;;
75582;SDS011;64161;46.312;44.310;2022-10-15T06:40:30;9.30;;;3.33;;
75582;SDS011;64161;46.312;44.310;2022-10-15T06:43:07;5.15;;;2.60;;
75582;SDS011;64161;46.312;44.310;2022-10-15T06:45:39;5.22;;;2.30;;
75582;SDS011;64161;46.312;44.310;2022-10-15T06:48:15;5.30;;;2.55;;
75582;SDS011;64161;46.312;44.310;2022-10-15T06:50:47;5.47;;;2.92;;
75582;SDS011;64161;46.312;44.310;2022-10-15T06:53:13;5.60;;;2.70;;
75582;SDS011;64161;46.312;44.310;2022-10-15T06:55:41;4.80;;;2.17;;
75582;SDS011;64161;46.312;44.310;2022-10-15T06:58:08;5.50;;;2.60;;
75582;SDS011;64161;46.312;44.310;2022-10-15T07:00:36;5.97;;;2.22;;
75582;SDS011;64161;46.312;44.310;2022-10-15T07:03:05;5.90;;;3.13;;
75582;SDS011;64161;46.312;44.310;2022-10-15T07:05:33;3.58;;;2.08;;
75582;SDS011;64161;46.312;44.310;2022-10-15T07:08:04;4.43;;;2.20;;
75582;SDS011;64161;46.312;44.310;2022-10-15T07:10:30;8.88;;;3.58;;
75582;SDS011;64161;46.312;44.310;2022-10-15T07:13:03;5.90;;;1.92;;
75582;SDS011;64161;46.312;44.310;2022-10-15T07:15:29;5.43;;;2.05;;
75582;SDS011;64161;46.312;44.310;2022-10-15T07:17:56;7.05;;;2.10;;
75582;SDS011;64161;46.312;44.310;2022-10-15T07:20:26;6.78;;;2.53;;
75582;SDS011;64161;46.312;44.310;2022-10-15T07:22:56;9.13;;;3.05;;
75582;SDS011;64161;46.312;44.310;2022-10-15T07:25:28;10.05;;;3.70;;
75582;SDS011;64161;46.312;44.310;2022-10-15T07:27:54;5.15;;;2.05;;
75582;SDS011;64161;46.312;44.310;2022-10-15T07:30:22;5.18;;;2.50;;
75582;SDS011;64161;46.312;44.310;2022-10-15T07:32:56;9.40;;;3.85;;
75582;SDS011;64161;46.312;44.310;2022-10-15T07:35:25;5.43;;;2.25;;
75582;SDS011;64161;46.312;44.310;2022-10-15T07:37:52;7.68;;;2.85;;
75582;SDS011;64161;46.312;44.310;2022-10-15T07:40:21;8.32;;;2.63;;
75582;SDS011;64161;46.312;44.310;2022-10-15T07:42:54;5.63;;;1.95;;
75582;SDS011;64161;46.312;44.310;2022-10-15T07:45:27;5.53;;;2.40;;
75582;SDS011;64161;46.312;44.310;2022-10-15T07:47:54;10.50;;;3.63;;
75582;SDS011;64161;46.312;44.310;2022-10-15T07:50:23;4.80;;;2.45;;
75582;SDS011;64161;46.312;44.310;2022-10-15T07:52:54;9.18;;;2.75;;
75582;SDS011;64161;46.312;44.310;2022-10-15T07:55:24;6.72;;;2.13;;
75582;SDS011;64161;46.312;44.310;2022-10-15T07:57:50;12.07;;;3.13;;
75582;SDS011;64161;46.312;44.310;2022-10-15T08:00:17;4.57;;;1.88;;
75582;SDS011;64161;46.312;44.310;2022-10-15T08:02:43;5.05;;;2.85;;
75582;SDS011;64161;46.312;44.310;2022-10-15T08:05:09;19.02;;;3.40;;
75582;SDS011;64161;46.312;44.310;2022-10-15T08:07:36;7.22;;;2.55;;
75582;SDS011;64161;46.312;44.310;2022-10-15T08:10:09;4.28;;;2.05;;
75582;SDS011;64161;46.312;44.310;2022-10-15T08:12:37;10.35;;;2.80;;
75582;SDS011;64161;46.312;44.310;2022-10-15T08:15:04;5.32;;;2.35;;
75582;SDS011;64161;46.312;44.310;2022-10-15T08:17:30;5.30;;;2.67;;
75582;SDS011;64161;46.312;44.310;2022-10-15T08:19:57;4.20;;;1.48;;
75582;SDS011;64161;46.312;44.310;2022-10-15T08:22:23;4.15;;;2.05;;
75582;SDS011;64161;46.312;44.310;2022-10-15T08:24:55;3.30;;;1.83;;
75582;SDS011;64161;46.312;44.310;2022-10-15T08:27:36;12.40;;;5.20;;
75582;SDS011;64161;46.312;44.310;2022-10-15T08:30:02;12.95;;;5.18;;
75582;SDS011;64161;46.312;44.310;2022-10-15T08:32:32;6.15;;;2.63;;
75582;SDS011;64161;46.312;44.310;2022-10-15T08:34:58;7.20;;;2.88;;
75582;SDS011;64161;46.312;44.310;2022-10-15T08:37:26;3.78;;;2.50;;
75582;SDS011;64161;46.312;44.310;2022-10-15T08:39:52;3.97;;;2.22;;
75582;SDS011;64161;46.312;44.310;2022-10-15T08:42:20;9.77;;;2.38;;
75582;SDS011;64161;46.312;44.310;2022-10-15T08:45:00;8.48;;;3.40;;
75582;SDS011;64161;46.312;44.310;2022-10-15T08:48:09;13.70;;;4.00;;
75582;SDS011;64161;46.312;44.310;2022-10-15T08:50:45;3.83;;;1.90;;
75582;SDS011;64161;46.312;44.310;2022-10-15T08:56:16;10.88;;;3.33;;
75582;SDS011;64161;46.312;44.310;2022-10-15T08:59:34;7.35;;;2.50;;
75582;SDS011;64161;46.312;44.310;2022-10-15T09:02:46;5.15;;;2.58;;
75582;SDS011;64161;46.312;44.310;2022-10-15T09:08:28;6.97;;;2.10;;
75582;SDS011;64161;46.312;44.310;2022-10-15T09:13:45;4.38;;;2.25;;
75582;SDS011;64161;46.312;44.310;2022-10-15T09:16:34;4.65;;;2.50;;
75582;SDS011;64161;46.312;44.310;2022-10-15T09:19:12;7.95;;;2.95;;
75582;SDS011;64161;46.312;44.310;2022-10-15T09:21:47;8.45;;;3.20;;
75582;SDS011;64161;46.312;44.310;2022-10-15T09:24:24;11.13;;;3.38;;
75582;SDS011;64161;46.312;44.310;2022-10-15T09:27:07;4.32;;;1.60;;
75582;SDS011;64161;46.312;44.310;2022-10-15T09:29:43;4.65;;;1.92;;
75582;SDS011;64161;46.312;44.310;2022-10-15T09:32:39;6.63;;;2.83;;
75582;SDS011;64161;46.312;44.310;2022-10-15T09:35:15;6.03;;;2.15;;
75582;SDS011;64161;46.312;44.310;2022-10-15T09:40:26;7.93;;;2.22;;
75582;SDS011;64161;46.312;44.310;2022-10-15T09:43:01;5.57;;;2.20;;
75582;SDS011;64161;46.312;44.310;2022-10-15T09:45:29;7.25;;;1.88;;
75582;SDS011;64161;46.312;44.310;2022-10-15T09:47:57;4.95;;;2.40;;
75582;SDS011;64161;46.312;44.310;2022-10-15T09:50:26;5.80;;;2.45;;
75582;SDS011;64161;46.312;44.310;2022-10-15T09:53:06;5.68;;;1.75;;
75582;SDS011;64161;46.312;44.310;2022-10-15T09:58:25;5.35;;;1.75;;
75582;SDS011;64161;46.312;44.310;2022-10-15T10:01:16;3.92;;;1.65;;
75582;SDS011;64161;46.312;44.310;2022-10-15T10:07:05;4.05;;;2.13;;
75582;SDS011;64161;46.312;44.310;2022-10-15T10:09:47;10.55;;;2.72;;
75582;SDS011;64161;46.312;44.310;2022-10-15T10:12:35;6.95;;;4.38;;
75582;SDS011;64161;46.312;44.310;2022-10-15T10:15:04;7.70;;;2.53;;
75582;SDS011;64161;46.312;44.310;2022-10-15T10:17:31;20.40;;;3.55;;
75582;SDS011;64161;46.312;44.310;2022-10-15T10:22:40;5.25;;;1.67;;
75582;SDS011;64161;46.312;44.310;2022-10-15T10:25:23;3.78;;;2.05;;
75582;SDS011;64161;46.312;44.310;2022-10-15T10:31:14;4.32;;;2.00;;
75582;SDS011;64161;46.312;44.310;2022-10-15T10:33:47;3.67;;;2.17;;
75582;SDS011;64161;46.312;44.310;2022-10-15T10:36:27;5.30;;;1.90;;
75582;SDS011;64161;46.312;44.310;2022-10-15T10:39:04;3.38;;;1.90;;
75582;SDS011;64161;46.312;44.310;2022-10-15T10:41:49;6.00;;;1.65;;
75582;SDS011;64161;46.312;44.310;2022-10-15T10:44:19;4.13;;;2.13;;
75582;SDS011;64161;46.312;44.310;2022-10-15T10:47:08;3.88;;;2.20;;
75582;SDS011;64161;46.312;44.310;2022-10-15T10:49:55;5.35;;;2.28;;
75582;SDS011;64161;46.312;44.310;2022-10-15T10:55:33;5.63;;;2.75;;
75582;SDS011;64161;46.312;44.310;2022-10-15T10:58:03;5.47;;;1.73;;
75582;SDS011;64161;46.312;44.310;2022-10-15T11:00:38;4.88;;;2.10;;
75582;SDS011;64161;46.312;44.310;2022-10-15T11:03:26;3.58;;;1.80;;
75582;SDS011;64161;46.312;44.310;2022-10-15T11:06:05;3.47;;;1.63;;
75582;SDS011;64161;46.312;44.310;2022-10-15T11:11:24;3.95;;;1.92;;
75582;SDS011;64161;46.312;44.310;2022-10-15T11:14:08;5.20;;;2.55;;
75582;SDS011;64161;46.312;44.310;2022-10-15T11:19:51;6.63;;;2.22;;
75582;SDS011;64161;46.312;44.310;2022-10-15T11:22:58;4.03;;;1.55;;
75582;SDS011;64161;46.312;44.310;2022-10-15T11:30:45;3.53;;;1.73;;
75582;SDS011;64161;46.312;44.310;2022-10-15T11:33:23;5.60;;;2.22;;
75582;SDS011;64161;46.312;44.310;2022-10-15T11:35:56;4.90;;;2.25;;
75582;SDS011;64161;46.312;44.310;2022-10-15T11:38:41;3.47;;;1.80;;
75582;SDS011;64161;46.312;44.310;2022-10-15T11:46:40;3.80;;;1.73;;
75582;SDS011;64161;46.312;44.310;2022-10-15T11:57:26;3.72;;;1.45;;
75582;SDS011;64161;46.312;44.310;2022-10-15T11:59:59;3.38;;;1.60;;
75582;SDS011;64161;46.312;44.310;2022-10-15T12:02:37;2.05;;;1.05;;
75582;SDS011;64161;46.312;44.310;2022-10-15T12:05:07;9.43;;;1.52;;
75582;SDS011;64161;46.312;44.310;2022-10-15T12:07:42;5.40;;;1.42;;
75582;SDS011;64161;46.312;44.310;2022-10-15T12:12:39;3.65;;;1.35;;
75582;SDS011;64161;46.312;44.310;2022-10-15T12:15:26;3.03;;;1.33;;
75582;SDS011;64161;46.312;44.310;2022-10-15T12:18:03;3.60;;;1.60;;
75582;SDS011;64161;46.312;44.310;2022-10-15T12:20:37;9.68;;;1.67;;
75582;SDS011;64161;46.312;44.310;2022-10-15T12:23:19;5.07;;;1.40;;
75582;SDS011;64161;46.312;44.310;2022-10-15T12:25:49;3.65;;;1.45;;
75582;SDS011;64161;46.312;44.310;2022-10-15T12:28:34;2.65;;;1.20;;
75582;SDS011;64161;46.312;44.310;2022-10-15T12:31:01;3.13;;;1.60;;
75582;SDS011;64161;46.312;44.310;2022-10-15T12:38:57;3.13;;;1.48;;
75582;SDS011;64161;46.312;44.310;2022-10-15T12:46:40;1.90;;;0.82;;
75582;SDS011;64161;46.312;44.310;2022-10-15T12:51:52;2.17;;;0.98;;
75582;SDS011;64161;46.312;44.310;2022-10-15T13:00:01;3.65;;;1.27;;
75582;SDS011;64161;46.312;44.310;2022-10-15T13:02:47;3.78;;;1.25;;
75582;SDS011;64161;46.312;44.310;2022-10-15T13:05:27;2.40;;;1.17;;
75582;SDS011;64161;46.312;44.310;2022-10-15T13:07:56;2.83;;;1.17;;
75582;SDS011;64161;46.312;44.310;2022-10-15T13:12:54;4.70;;;1.47;;
75582;SDS011;64161;46.312;44.310;2022-10-15T13:15:23;6.10;;;1.80;;
75582;SDS011;64161;46.312;44.310;2022-10-15T13:17:51;2.63;;;1.17;;
75582;SDS011;64161;46.312;44.310;2022-10-15T13:20:32;3.67;;;1.50;;
75582;SDS011;64161;46.312;44.310;2022-10-15T13:25:36;4.55;;;1.42;;
75582;SDS011;64161;46.312;44.310;2022-10-15T13:28:21;3.10;;;1.63;;
75582;SDS011;64161;46.312;44.310;2022-10-15T13:31:31;2.13;;;1.02;;
75582;SDS011;64161;46.312;44.310;2022-10-15T13:36:51;3.78;;;1.50;;
75582;SDS011;64161;46.312;44.310;2022-10-15T13:39:32;2.45;;;0.98;;
75582;SDS011;64161;46.312;44.310;2022-10-15T13:42:05;3.15;;;1.35;;
75582;SDS011;64161;46.312;44.310;2022-10-15T13:44:41;2.67;;;1.38;;
75582;SDS011;64161;46.312;44.310;2022-10-15T13:50:12;3.60;;;1.52;;
75582;SDS011;64161;46.312;44.310;2022-10-15T13:55:28;5.57;;;1.90;;
75582;SDS011;64161;46.312;44.310;2022-10-15T13:58:05;4.00;;;1.52;;
75582;SDS011;64161;46.312;44.310;2022-10-15T14:01:27;3.78;;;1.45;;
75582;SDS011;64161;46.312;44.310;2022-10-15T14:03:47;2.92;;;1.30;;
75582;SDS011;64161;46.312;44.310;2022-10-15T14:06:16;5.93;;;1.90;;
75582;SDS011;64161;46.312;44.310;2022-10-15T14:08:54;3.55;;;1.35;;
75582;SDS011;64161;46.312;44.310;2022-10-15T14:11:42;5.57;;;1.70;;
75582;SDS011;64161;46.312;44.310;2022-10-15T14:14:25;3.80;;;1.40;;
75582;SDS011;64161;46.312;44.310;2022-10-15T14:16:56;4.38;;;1.85;;
75582;SDS011;64161;46.312;44.310;2022-10-15T14:19:24;4.38;;;2.05;;
75582;SDS011;64161;46.312;44.310;2022-10-15T14:21:54;4.22;;;1.25;;
75582;SDS011;64161;46.312;44.310;2022-10-15T14:24:25;3.85;;;1.50;;
75582;SDS011;64161;46.312;44.310;2022-10-15T14:27:13;5.22;;;1.48;;
75582;SDS011;64161;46.312;44.310;2022-10-15T14:29:45;5.50;;;1.65;;
75582;SDS011;64161;46.312;44.310;2022-10-15T14:32:17;3.88;;;1.50;;
75582;SDS011;64161;46.312;44.310;2022-10-15T14:34:50;4.00;;;1.90;;
75582;SDS011;64161;46.312;44.310;2022-10-15T14:37:31;4.40;;;1.50;;
75582;SDS011;64161;46.312;44.310;2022-10-15T14:42:39;4.80;;;1.50;;
75582;SDS011;64161;46.312;44.310;2022-10-15T14:45:27;3.30;;;1.60;;
75582;SDS011;64161;46.312;44.310;2022-10-15T14:48:17;3.42;;;1.33;;
75582;SDS011;64161;46.312;44.310;2022-10-15T14:50:55;5.40;;;1.65;;
75582;SDS011;64161;46.312;44.310;2022-10-15T14:53:25;4.03;;;1.90;;
75582;SDS011;64161;46.312;44.310;2022-10-15T14:55:56;3.03;;;1.80;;
75582;SDS011;64161;46.312;44.310;2022-10-15T14:58:25;3.50;;;1.50;;
75582;SDS011;64161;46.312;44.310;2022-10-15T15:00:55;3.72;;;1.63;;
75582;SDS011;64161;46.312;44.310;2022-10-15T15:06:20;4.75;;;1.67;;
75582;SDS011;64161;46.312;44.310;2022-10-15T15:08:46;4.00;;;1.60;;
75582;SDS011;64161;46.312;44.310;2022-10-15T15:11:17;3.53;;;1.60;;
75582;SDS011;64161;46.312;44.310;2022-10-15T15:13:45;7.68;;;1.73;;
75582;SDS011;64161;46.312;44.310;2022-10-15T15:16:13;4.47;;;1.80;;
75582;SDS011;64161;46.312;44.310;2022-10-15T15:18:40;9.07;;;1.85;;
75582;SDS011;64161;46.312;44.310;2022-10-15T15:21:10;16.92;;;8.25;;
75582;SDS011;64161;46.312;44.310;2022-10-15T15:23:41;3.95;;;1.45;;
75582;SDS011;64161;46.312;44.310;2022-10-15T15:26:08;2.92;;;1.58;;
75582;SDS011;64161;46.312;44.310;2022-10-15T15:28:35;3.60;;;1.80;;
75582;SDS011;64161;46.312;44.310;2022-10-15T15:31:02;3.55;;;1.45;;
75582;SDS011;64161;46.312;44.310;2022-10-15T15:33:32;3.35;;;1.42;;
75582;SDS011;64161;46.312;44.310;2022-10-15T15:36:00;3.78;;;1.77;;
75582;SDS011;64161;46.312;44.310;2022-10-15T15:38:55;3.28;;;1.40;;
75582;SDS011;64161;46.312;44.310;2022-10-15T15:41:23;4.32;;;1.75;;
75582;SDS011;64161;46.312;44.310;2022-10-15T15:43:51;3.85;;;1.80;;
75582;SDS011;64161;46.312;44.310;2022-10-15T15:46:19;3.83;;;1.75;;
75582;SDS011;64161;46.312;44.310;2022-10-15T15:48:46;2.42;;;0.90;;
75582;SDS011;64161;46.312;44.310;2022-10-15T15:51:19;5.15;;;1.52;;
75582;SDS011;64161;46.312;44.310;2022-10-15T15:53:50;2.90;;;1.02;;
75582;SDS011;64161;46.312;44.310;2022-10-15T15:56:17;4.45;;;1.88;;
75582;SDS011;64161;46.312;44.310;2022-10-15T15:58:44;3.92;;;1.63;;
75582;SDS011;64161;46.312;44.310;2022-10-15T16:01:11;4.35;;;1.95;;
75582;SDS011;64161;46.312;44.310;2022-10-15T16:03:38;3.67;;;1.30;;
75582;SDS011;64161;46.312;44.310;2022-10-15T16:06:05;4.75;;;1.88;;
75582;SDS011;64161;46.312;44.310;2022-10-15T16:08:32;4.05;;;1.88;;
75582;SDS011;64161;46.312;44.310;2022-10-15T16:11:00;5.18;;;1.48;;
75582;SDS011;64161;46.312;44.310;2022-10-15T16:13:27;3.47;;;1.45;;
75582;SDS011;64161;46.312;44.310;2022-10-15T16:15:54;3.75;;;1.83;;
75582;SDS011;64161;46.312;44.310;2022-10-15T16:18:20;2.88;;;1.30;;
75582;SDS011;64161;46.312;44.310;2022-10-15T16:20:47;4.40;;;1.83;;
75582;SDS011;64161;46.312;44.310;2022-10-15T16:23:13;2.95;;;1.48;;
75582;SDS011;64161;46.312;44.310;2022-10-15T16:25:40;3.92;;;1.50;;
75582;SDS011;64161;46.312;44.310;2022-10-15T16:28:07;3.30;;;1.80;;
75582;SDS011;64161;46.312;44.310;2022-10-15T16:30:33;3.40;;;1.70;;
75582;SDS011;64161;46.312;44.310;2022-10-15T16:33:00;5.80;;;1.75;;
75582;SDS011;64161;46.312;44.310;2022-10-15T16:35:26;3.40;;;1.65;;
75582;SDS011;64161;46.312;44.310;2022-10-15T16:37:53;6.38;;;1.67;;
75582;SDS011;64161;46.312;44.310;2022-10-15T16:40:20;3.30;;;1.52;;
75582;SDS011;64161;46.312;44.310;2022-10-15T16:42:48;3.30;;;1.40;;
75582;SDS011;64161;46.312;44.310;2022-10-15T16:45:14;14.55;;;6.50;;
75582;SDS011;64161;46.312;44.310;2022-10-15T16:47:40;3.30;;;1.30;;
75582;SDS011;64161;46.312;44.310;2022-10-15T16:50:10;3.30;;;1.73;;
75582;SDS011;64161;46.312;44.310;2022-10-15T16:52:36;4.85;;;2.13;;
75582;SDS011;64161;46.312;44.310;2022-10-15T16:55:03;3.97;;;1.95;;
75582;SDS011;64161;46.312;44.310;2022-10-15T16:57:30;5.00;;;1.30;;
75582;SDS011;64161;46.312;44.310;2022-10-15T16:59:56;4.32;;;1.33;;
75582;SDS011;64161;46.312;44.310;2022-10-15T17:02:23;3.42;;;1.30;;
75582;SDS011;64161;46.312;44.310;2022-10-15T17:04:49;3.65;;;1.33;;
75582;SDS011;64161;46.312;44.310;2022-10-15T17:07:16;8.32;;;1.63;;
75582;SDS011;64161;46.312;44.310;2022-10-15T17:09:42;2.83;;;1.30;;
75582;SDS011;64161;46.312;44.310;2022-10-15T17:12:11;2.90;;;1.30;;